Lancaster, PA

12:01 AM EST on November 27, 2014 (GMT -0500)
Reading Regional-Spaatz | Change Station
CLOSE
Current Station
Airport
Location: Reading,
Elevation: 344 ft
Nearby Weather Stations

Elev 344 ft 40.37 °N, 75.96 °W | Updated 7 minutes ago

Overcast
Overcast
36 °F
Feels Like 31 °F
N
6
Wind Variable Wind from WNW

Today
High -- | Low -- °F
--% Chance of Precip.
Yesterday
High -- | Low -- °F
Precip. -- in
7:03 AM 4:41 PM
Waxing Crescent, 26% visible
Pressure 29.95 in
Visibility 10.0 miles
Clouds Scattered Clouds 7000 ft
Scattered Clouds 8000 ft
Overcast 11000 ft
Windchill 31 °F
Dew Point 30 °F
Humidity 79%
Rainfall 0.57 in
Snow Depth Not available.
UV 0 out of 12
Pollen .10 out of 12
Air Quality Not available.
Flu Activity Not available.
METAR KRDG 270454Z 30005KT 10SM SCT070 SCT080 OVC110 02/M01 A2993 RMK AO2 SLP142 T00221011 400670011

More Conditions Fewer Conditions

Pressure 29.95 in
Visibility 10.0 miles
Clouds Scattered Clouds 7000 ft
Scattered Clouds 8000 ft
Overcast 11000 ft
Windchill 31 °F
Dew Point 30 °F
Humidity 79%
Rainfall 0.57 in
Snow Depth Not available.
UV 0 out of 12
Pollen .10 out of 12
Air Quality Not available.
Flu Activity Not available.
METAR KRDG 270454Z 30005KT 10SM SCT070 SCT080 OVC110 02/M01 A2993 RMK AO2 SLP142 T00221011 400670011

More Conditions Fewer Conditions

10-Day Weather Forecast

Almanac

Astronomy

Nov. 27, 2014 Rise Set
Actual Time
Civil Twilight
Nautical Twilight
Astronomical Twilight
Moon
Length of Visible Light
Length of Day
Tomorrow will be .
, % of the Moon is Illuminated

Today's Extremes

State Highs State Lows

Community

WunderPhotos

Upload Photos

1,773,958 photos uploaded!

WunderBlogs® & News

Nearby

Air Quality

  Air Quality AQ Index Pollutant
Not available.

Snow Depth

Station Depth Elevation

Earthquake Activity

City Distance Mag. Time & Date
Minimum magnitude displayed is 2.5.

Coastal Water Temperatures

Place Temperature

Nearby Weather Stations